Terminal Aerodrome Forecast
Issued by NWS Twin Cities, MN

Home | Current Version | Previous Version | Text Only | Print | Product List | Glossary Off
Versions: 1 2 3 4 5 6 7 8 9 10 11 12 13

000
FTUS43 KMPX 161100 RRA
TAFEAU
TAF
KEAU 161146Z 1612/1712 35013G20KT P6SM SCT020 OVC035
     FM161300 35016G21KT 3SM -SN BR OVC015
      TEMPO 1613/1615 1 1/2SM -SN OVC010
     FM161500 33014G21KT 6SM -SN BR OVC015
     FM161700 32013KT P6SM OVC015
     FM170200 31011KT P6SM BKN020=

USA.gov is the U.S. government's official web portal to all federal, state and local government web resources and services.